Time;durP1;ratioP1;P1;durP2;ratioP2;P2;SDS_P1;SDS_P2;PMS_P1;PMS_P2;Temp;Humidity;BMP_temperature;BMP_pressure;BME280_temperature;BME280_humidity;BME280_pressure;Samples;Min_cycle;Max_cycle;Signal;HPM_P1;HPM_P2
2022/01/04 00:00:17;;;;;;;1.30;0.73;;;;;;;;;;5070570;28;20418;-76
2022/01/04 00:02:43;;;;;;;1.40;0.80;;;;;;;;;;5071103;28;20486;-76
2022/01/04 00:05:10;;;;;;;1.83;0.80;;;;;;;;;;5070852;28;20445;-77
2022/01/04 00:07:36;;;;;;;5.10;1.23;;;;;;;;;;5071428;28;20413;-77
2022/01/04 00:10:03;;;;;;;1.70;0.70;;;;;;;;;;5076737;28;20438;-79
2022/01/04 00:15:14;;;;;;;1.40;0.70;;;;;;;;;;5085315;28;20425;-79
2022/01/04 00:17:40;;;;;;;1.20;0.73;;;;;;;;;;5084139;28;20450;-79
2022/01/04 00:20:07;;;;;;;1.00;0.60;;;;;;;;;;5087707;28;20411;-79
2022/01/04 00:22:33;;;;;;;1.90;0.90;;;;;;;;;;5092920;28;20399;-79
2022/01/04 00:24:59;;;;;;;2.33;0.80;;;;;;;;;;5081235;28;20398;-79
2022/01/04 00:27:25;;;;;;;2.67;0.90;;;;;;;;;;5079094;28;20413;-79
2022/01/04 00:29:51;;;;;;;4.20;0.87;;;;;;;;;;5077259;28;20427;-79
2022/01/04 00:32:17;;;;;;;1.70;0.70;;;;;;;;;;5078727;28;20489;-79
2022/01/04 00:34:43;;;;;;;1.03;0.60;;;;;;;;;;5082812;28;20403;-79
2022/01/04 00:37:10;;;;;;;1.57;0.70;;;;;;;;;;5083332;28;20405;-77
2022/01/04 00:39:37;;;;;;;2.13;1.10;;;;;;;;;;5078367;28;20468;-77
2022/01/04 00:42:03;;;;;;;1.10;0.70;;;;;;;;;;5076143;28;20472;-77
2022/01/04 00:44:29;;;;;;;1.97;0.70;;;;;;;;;;5076701;28;20816;-77
2022/01/04 00:46:55;;;;;;;1.30;0.80;;;;;;;;;;5077675;28;20429;-77
2022/01/04 00:49:22;;;;;;;1.27;0.60;;;;;;;;;;5077314;28;20449;-77
2022/01/04 00:51:50;;;;;;;1.30;0.70;;;;;;;;;;5077319;28;20980;-77
2022/01/04 00:54:19;;;;;;;1.20;0.90;;;;;;;;;;5076597;28;20920;-77
2022/01/04 00:56:45;;;;;;;1.00;0.70;;;;;;;;;;5078073;28;20407;-76
2022/01/04 00:59:11;;;;;;;1.10;0.80;;;;;;;;;;5077493;28;20411;-77
2022/01/04 01:01:38;;;;;;;1.53;0.70;;;;;;;;;;5077272;28;20417;-76
2022/01/04 01:04:05;;;;;;;1.23;0.70;;;;;;;;;;5077767;28;20407;-76
2022/01/04 01:06:32;;;;;;;1.00;0.60;;;;;;;;;;5077600;28;20406;-76
2022/01/04 01:08:58;;;;;;;1.00;0.60;;;;;;;;;;5077229;28;20573;-76
2022/01/04 01:11:24;;;;;;;1.30;0.80;;;;;;;;;;5077093;28;20968;-76
2022/01/04 01:13:50;;;;;;;2.90;0.80;;;;;;;;;;5077359;28;20399;-77
2022/01/04 01:16:17;;;;;;;1.00;0.70;;;;;;;;;;5077225;28;20405;-77
2022/01/04 01:18:43;;;;;;;1.80;0.90;;;;;;;;;;5077394;28;20407;-76
2022/01/04 01:21:09;;;;;;;1.83;0.80;;;;;;;;;;5076970;28;20407;-76
2022/01/04 01:23:35;;;;;;;1.50;0.73;;;;;;;;;;5077357;28;20901;-76
2022/01/04 01:26:02;;;;;;;1.40;0.73;;;;;;;;;;5077331;28;20403;-76
2022/01/04 01:28:28;;;;;;;1.47;0.83;;;;;;;;;;5077221;28;20493;-76
2022/01/04 01:30:54;;;;;;;1.70;0.80;;;;;;;;;;5076615;28;20458;-76
2022/01/04 01:33:21;;;;;;;1.60;0.70;;;;;;;;;;5077278;28;20413;-76
2022/01/04 01:35:47;;;;;;;1.00;0.60;;;;;;;;;;5077329;28;21004;-76
2022/01/04 01:38:16;;;;;;;8.50;0.83;;;;;;;;;;5077222;28;20451;-76
2022/01/04 01:40:43;;;;;;;1.00;0.70;;;;;;;;;;5076758;28;20431;-76
2022/01/04 01:43:09;;;;;;;1.10;0.63;;;;;;;;;;5078197;28;20896;-76
2022/01/04 01:45:36;;;;;;;1.40;0.70;;;;;;;;;;5076322;28;20472;-76
2022/01/04 01:48:02;;;;;;;1.90;0.70;;;;;;;;;;5073849;28;20873;-76
2022/01/04 01:50:28;;;;;;;1.60;0.63;;;;;;;;;;5073354;28;20449;-76
2022/01/04 01:52:55;;;;;;;1.10;0.70;;;;;;;;;;5073701;28;20390;-76
2022/01/04 01:55:21;;;;;;;1.20;0.70;;;;;;;;;;5073783;28;20396;-76
2022/01/04 01:57:49;;;;;;;6.80;1.73;;;;;;;;;;5073997;28;20417;-77
2022/01/04 02:00:16;;;;;;;1.00;0.60;;;;;;;;;;5074550;28;20421;-79
2022/01/04 02:02:42;;;;;;;1.40;0.70;;;;;;;;;;5072808;28;20437;-79
2022/01/04 02:05:09;;;;;;;1.10;0.70;;;;;;;;;;5073716;28;20463;-76
2022/01/04 02:07:35;;;;;;;2.93;0.70;;;;;;;;;;5073620;28;20443;-76
2022/01/04 02:10:03;;;;;;;0.90;0.50;;;;;;;;;;5073337;28;20924;-75
2022/01/04 02:12:31;;;;;;;1.47;0.70;;;;;;;;;;5073202;28;20485;-75
2022/01/04 02:14:57;;;;;;;1.20;0.60;;;;;;;;;;5073407;28;20437;-75
2022/01/04 02:17:23;;;;;;;3.33;0.70;;;;;;;;;;5072243;28;20891;-75
2022/01/04 02:19:49;;;;;;;3.83;0.67;;;;;;;;;;5073172;28;20427;-75
2022/01/04 02:22:15;;;;;;;1.20;0.60;;;;;;;;;;5073072;28;20457;-75
2022/01/04 02:24:41;;;;;;;1.43;0.90;;;;;;;;;;5073390;28;20460;-75
2022/01/04 02:27:07;;;;;;;1.10;0.67;;;;;;;;;;5073167;28;20410;-75
2022/01/04 02:29:33;;;;;;;1.30;0.63;;;;;;;;;;5073260;28;20833;-76
2022/01/04 02:31:59;;;;;;;1.50;0.70;;;;;;;;;;5071357;28;20458;-76
2022/01/04 02:34:25;;;;;;;13.13;0.83;;;;;;;;;;5073168;28;20489;-77
2022/01/04 02:36:51;;;;;;;1.40;0.80;;;;;;;;;;5072953;28;20929;-76
2022/01/04 02:39:17;;;;;;;2.73;0.90;;;;;;;;;;5071451;28;20423;-73
2022/01/04 02:41:43;;;;;;;1.33;0.83;;;;;;;;;;5072554;28;20407;-73
2022/01/04 02:44:09;;;;;;;1.77;1.00;;;;;;;;;;5072760;28;20422;-73
2022/01/04 02:46:35;;;;;;;3.43;1.23;;;;;;;;;;5072765;28;20403;-73
2022/01/04 02:49:01;;;;;;;1.77;1.00;;;;;;;;;;5072334;28;20801;-72
2022/01/04 02:51:27;;;;;;;3.23;0.80;;;;;;;;;;5072353;28;20976;-72
2022/01/04 02:53:54;;;;;;;1.50;0.87;;;;;;;;;;5072500;28;20501;-72
2022/01/04 02:56:20;;;;;;;2.50;0.90;;;;;;;;;;5072572;28;20443;-72
2022/01/04 02:58:46;;;;;;;1.97;0.90;;;;;;;;;;5072315;28;20395;-72
2022/01/04 03:01:12;;;;;;;2.40;0.90;;;;;;;;;;5071980;28;20482;-72
2022/01/04 03:03:38;;;;;;;1.40;0.87;;;;;;;;;;5072529;28;20489;-72
2022/01/04 03:06:04;;;;;;;2.50;1.13;;;;;;;;;;5072278;28;20436;-72
2022/01/04 03:08:31;;;;;;;2.13;0.80;;;;;;;;;;5072443;28;20421;-72
2022/01/04 03:10:56;;;;;;;1.40;0.80;;;;;;;;;;5071611;28;20466;-73
2022/01/04 03:13:22;;;;;;;1.50;0.87;;;;;;;;;;5072295;28;20415;-73
2022/01/04 03:15:49;;;;;;;1.50;0.80;;;;;;;;;;5072125;28;20435;-73
2022/01/04 03:18:15;;;;;;;1.60;1.10;;;;;;;;;;5072081;28;20415;-73
2022/01/04 03:20:41;;;;;;;2.30;0.80;;;;;;;;;;5071697;28;20918;-73
2022/01/04 03:23:10;;;;;;;4.70;1.23;;;;;;;;;;5071998;28;20403;-73
2022/01/04 03:25:36;;;;;;;1.80;0.90;;;;;;;;;;5070640;28;20419;-73
2022/01/04 03:28:03;;;;;;;1.50;1.00;;;;;;;;;;5071789;28;20395;-73
2022/01/04 03:30:29;;;;;;;2.43;1.00;;;;;;;;;;5071371;28;20423;-73
2022/01/04 03:32:55;;;;;;;1.70;0.80;;;;;;;;;;5071870;28;20878;-73
2022/01/04 03:35:21;;;;;;;1.30;0.80;;;;;;;;;;5071869;28;20399;-73
2022/01/04 03:37:47;;;;;;;1.40;1.00;;;;;;;;;;5071750;28;20405;-73
2022/01/04 03:40:14;;;;;;;1.20;0.73;;;;;;;;;;5071805;28;20494;-76
2022/01/04 03:42:40;;;;;;;1.30;0.90;;;;;;;;;;5072882;28;20909;-78
2022/01/04 03:45:06;;;;;;;2.00;0.80;;;;;;;;;;5072213;28;20407;-78
2022/01/04 03:47:32;;;;;;;2.13;0.67;;;;;;;;;;5072242;28;20410;-78
2022/01/04 03:49:59;;;;;;;1.20;0.70;;;;;;;;;;5071359;28;20809;-78
2022/01/04 03:52:25;;;;;;;1.17;0.70;;;;;;;;;;5071733;28;20482;-78
2022/01/04 03:54:51;;;;;;;1.50;0.80;;;;;;;;;;5072200;28;20399;-77
2022/01/04 03:57:17;;;;;;;1.40;0.80;;;;;;;;;;5070781;28;20414;-77
2022/01/04 03:59:43;;;;;;;1.30;0.70;;;;;;;;;;5071240;28;20446;-77
2022/01/04 04:02:09;;;;;;;2.17;0.80;;;;;;;;;;5071021;28;20498;-77
2022/01/04 04:04:35;;;;;;;1.00;0.63;;;;;;;;;;5071338;28;20434;-77
2022/01/04 04:07:01;;;;;;;1.83;0.87;;;;;;;;;;5071357;28;20403;-77
2022/01/04 04:09:27;;;;;;;2.83;0.90;;;;;;;;;;5070688;28;20433;-77
2022/01/04 04:11:53;;;;;;;2.70;0.90;;;;;;;;;;5070815;28;20461;-77
2022/01/04 04:14:19;;;;;;;1.03;0.67;;;;;;;;;;5071254;28;20406;-76
2022/01/04 04:16:45;;;;;;;5.67;0.90;;;;;;;;;;5071270;28;20414;-76
2022/01/04 04:19:11;;;;;;;2.53;0.80;;;;;;;;;;5070933;28;20472;-76
2022/01/04 04:21:37;;;;;;;2.50;0.73;;;;;;;;;;5070916;28;20414;-76
2022/01/04 04:24:03;;;;;;;1.30;0.80;;;;;;;;;;5071030;28;20464;-76
2022/01/04 04:26:29;;;;;;;1.43;0.67;;;;;;;;;;5071134;28;20410;-76
2022/01/04 04:28:55;;;;;;;1.67;1.00;;;;;;;;;;5071012;28;20426;-76
2022/01/04 04:31:21;;;;;;;1.53;0.90;;;;;;;;;;5070654;28;20946;-76
2022/01/04 04:33:47;;;;;;;3.13;0.93;;;;;;;;;;5071111;28;20406;-76
2022/01/04 04:36:13;;;;;;;1.23;0.73;;;;;;;;;;5072229;28;20398;-77
2022/01/04 04:38:39;;;;;;;1.30;0.80;;;;;;;;;;5070238;28;20407;-76
2022/01/04 04:41:05;;;;;;;3.67;0.87;;;;;;;;;;5071038;28;20433;-76
2022/01/04 04:43:32;;;;;;;1.77;0.80;;;;;;;;;;5071332;28;20497;-76
2022/01/04 04:45:58;;;;;;;4.80;0.80;;;;;;;;;;5071305;28;20411;-76
2022/01/04 04:48:25;;;;;;;3.53;1.10;;;;;;;;;;5071351;28;20484;-76
2022/01/04 04:50:51;;;;;;;1.30;0.80;;;;;;;;;;5069078;28;20996;-76
2022/01/04 04:53:17;;;;;;;1.40;0.80;;;;;;;;;;5071054;28;20957;-76
2022/01/04 04:55:43;;;;;;;1.30;0.60;;;;;;;;;;5070983;28;20486;-76
2022/01/04 04:58:10;;;;;;;1.40;0.70;;;;;;;;;;5070744;28;20410;-76
2022/01/04 05:00:36;;;;;;;1.40;0.90;;;;;;;;;;5070414;28;20513;-76
2022/01/04 05:03:02;;;;;;;1.30;0.60;;;;;;;;;;5070664;28;20900;-76
2022/01/04 05:05:28;;;;;;;1.07;0.60;;;;;;;;;;5073376;28;20410;-76
2022/01/04 05:07:54;;;;;;;1.23;0.80;;;;;;;;;;5072472;28;20414;-76
2022/01/04 05:10:20;;;;;;;1.30;0.80;;;;;;;;;;5074123;28;20429;-76
2022/01/04 05:12:46;;;;;;;1.17;0.60;;;;;;;;;;5074869;28;20450;-76
2022/01/04 05:15:12;;;;;;;1.07;0.57;;;;;;;;;;5074619;28;20407;-76
2022/01/04 05:17:38;;;;;;;1.40;0.90;;;;;;;;;;5072071;28;20464;-76
2022/01/04 05:20:05;;;;;;;1.10;0.60;;;;;;;;;;5072704;28;20419;-76
2022/01/04 05:22:31;;;;;;;1.30;0.80;;;;;;;;;;5075834;28;20467;-76
2022/01/04 05:24:57;;;;;;;5.90;0.90;;;;;;;;;;5076821;28;20501;-76
2022/01/04 05:27:23;;;;;;;1.00;0.60;;;;;;;;;;5075100;28;20411;-76
2022/01/04 05:29:49;;;;;;;1.57;0.70;;;;;;;;;;5074640;28;20429;-76
2022/01/04 05:32:15;;;;;;;1.63;0.60;;;;;;;;;;5074222;28;20462;-76
2022/01/04 05:34:41;;;;;;;1.43;0.77;;;;;;;;;;5074907;28;20398;-76
2022/01/04 05:37:07;;;;;;;1.20;0.70;;;;;;;;;;5075490;28;20810;-75
2022/01/04 05:39:33;;;;;;;1.40;1.00;;;;;;;;;;5075669;28;20426;-75
2022/01/04 05:41:59;;;;;;;1.20;0.70;;;;;;;;;;5073692;28;20426;-76
2022/01/04 05:44:25;;;;;;;1.10;0.73;;;;;;;;;;5074447;28;20399;-76
2022/01/04 05:46:51;;;;;;;1.33;0.70;;;;;;;;;;5074367;28;20414;-75
2022/01/04 05:49:17;;;;;;;1.50;0.90;;;;;;;;;;5074171;28;20533;-76
2022/01/04 05:51:43;;;;;;;1.83;1.00;;;;;;;;;;5074200;28;20508;-76
2022/01/04 05:54:09;;;;;;;1.73;1.10;;;;;;;;;;5073981;28;20793;-76
2022/01/04 05:56:35;;;;;;;3.13;1.40;;;;;;;;;;5072409;28;20403;-79
2022/01/04 05:59:01;;;;;;;5.17;1.97;;;;;;;;;;5072393;28;20472;-78
2022/01/04 06:01:27;;;;;;;6.53;2.90;;;;;;;;;;5072479;28;20449;-78
2022/01/04 06:03:54;;;;;;;4.63;2.93;;;;;;;;;;5072690;28;20403;-78
2022/01/04 06:06:20;;;;;;;4.03;2.43;;;;;;;;;;5072481;28;20465;-78
2022/01/04 06:08:48;;;;;;;5.60;2.30;;;;;;;;;;5072572;28;20407;-78
2022/01/04 06:12:01;;;;;;;4.90;2.80;;;;;;;;;;5072808;28;20537;-78
2022/01/04 06:16:46;;;;;;;5.83;3.00;;;;;;;;;;5073450;28;20821;-78
2022/01/04 06:19:12;;;;;;;3.70;1.80;;;;;;;;;;5073135;28;20419;-78
2022/01/04 06:21:38;;;;;;;14.87;2.80;;;;;;;;;;5073109;28;20395;-77
2022/01/04 06:24:04;;;;;;;10.07;2.87;;;;;;;;;;5073340;28;20437;-77
2022/01/04 06:26:30;;;;;;;5.00;3.00;;;;;;;;;;5072035;28;20860;-77
2022/01/04 06:28:56;;;;;;;2.37;1.47;;;;;;;;;;5073044;28;20415;-77
2022/01/04 06:31:24;;;;;;;8.70;2.40;;;;;;;;;;5072496;28;20957;-77
2022/01/04 06:33:50;;;;;;;9.80;2.77;;;;;;;;;;5072631;28;20403;-77
2022/01/04 06:36:17;;;;;;;6.13;2.43;;;;;;;;;;5073137;28;20485;-77
2022/01/04 06:38:43;;;;;;;4.93;1.90;;;;;;;;;;5073912;28;20414;-78
2022/01/04 06:41:09;;;;;;;6.23;3.00;;;;;;;;;;5074086;28;20406;-77
2022/01/04 06:43:35;;;;;;;4.27;1.70;;;;;;;;;;5072812;28;20491;-78
2022/01/04 06:46:01;;;;;;;13.97;3.83;;;;;;;;;;5073137;28;20963;-78
2022/01/04 06:48:27;;;;;;;5.07;2.00;;;;;;;;;;5073923;28;20505;-78
2022/01/04 06:50:53;;;;;;;4.30;1.90;;;;;;;;;;5071748;28;20465;-78
2022/01/04 06:53:19;;;;;;;5.70;2.43;;;;;;;;;;5081009;28;20414;-79
2022/01/04 06:55:50;;;;;;;4.03;1.63;;;;;;;;;;5093721;28;20402;-78
2022/01/04 06:58:16;;;;;;;6.23;3.33;;;;;;;;;;5092491;28;20493;-78
2022/01/04 07:00:42;;;;;;;3.70;2.80;;;;;;;;;;5072746;28;20937;-77
2022/01/04 07:03:08;;;;;;;3.80;1.80;;;;;;;;;;5077230;28;20517;-76
2022/01/04 07:05:35;;;;;;;4.50;1.33;;;;;;;;;;5065630;28;20425;-78
2022/01/04 07:08:01;;;;;;;5.20;1.90;;;;;;;;;;5076402;28;20978;-78
2022/01/04 07:10:28;;;;;;;2.33;1.20;;;;;;;;;;5071947;28;20415;-78
2022/01/04 07:12:54;;;;;;;2.87;1.30;;;;;;;;;;5072434;28;20454;-78
2022/01/04 07:15:20;;;;;;;3.70;1.80;;;;;;;;;;5072960;28;20410;-78
2022/01/04 07:17:46;;;;;;;8.57;2.47;;;;;;;;;;5072801;28;20944;-78
2022/01/04 07:20:12;;;;;;;5.47;2.10;;;;;;;;;;5076925;28;20442;-78
2022/01/04 07:22:38;;;;;;;3.87;2.20;;;;;;;;;;5073093;28;20410;-78
2022/01/04 07:25:05;;;;;;;3.20;1.70;;;;;;;;;;5073334;28;20407;-78
2022/01/04 07:27:31;;;;;;;11.07;2.40;;;;;;;;;;5071806;28;20422;-78
2022/01/04 07:29:57;;;;;;;2.50;1.40;;;;;;;;;;5071511;28;20501;-78
2022/01/04 07:32:23;;;;;;;7.50;2.93;;;;;;;;;;5073039;28;20569;-78
2022/01/04 07:34:49;;;;;;;6.23;2.07;;;;;;;;;;5071987;28;20422;-78
2022/01/04 07:37:16;;;;;;;2.60;1.37;;;;;;;;;;5071909;28;20639;-77
2022/01/04 07:39:42;;;;;;;4.10;1.73;;;;;;;;;;5071773;28;20427;-77
2022/01/04 07:42:08;;;;;;;5.77;2.90;;;;;;;;;;5071630;28;20426;-77
2022/01/04 07:44:34;;;;;;;2.70;1.57;;;;;;;;;;5071183;28;20827;-77
2022/01/04 07:47:00;;;;;;;4.47;1.73;;;;;;;;;;5071487;28;20411;-77
2022/01/04 07:49:26;;;;;;;7.50;1.70;;;;;;;;;;5071315;28;20446;-77
2022/01/04 07:51:53;;;;;;;4.17;1.47;;;;;;;;;;5069645;28;20455;-77
2022/01/04 07:54:19;;;;;;;2.60;1.27;;;;;;;;;;5071529;28;20830;-77
2022/01/04 07:56:45;;;;;;;2.40;1.50;;;;;;;;;;5082739;28;20414;-77
2022/01/04 07:59:11;;;;;;;4.53;1.87;;;;;;;;;;5086223;28;20794;-77
2022/01/04 08:01:38;;;;;;;2.23;1.47;;;;;;;;;;5070979;28;20399;-77
2022/01/04 08:04:04;;;;;;;2.23;1.53;;;;;;;;;;5071053;28;20518;-77
2022/01/04 08:06:31;;;;;;;4.03;1.90;;;;;;;;;;5090219;28;20904;-77
2022/01/04 08:08:57;;;;;;;3.40;1.40;;;;;;;;;;5081349;28;20845;-77
2022/01/04 08:11:26;;;;;;;3.73;1.83;;;;;;;;;;5079980;28;20462;-77
2022/01/04 08:13:52;;;;;;;2.40;1.30;;;;;;;;;;5089442;28;20777;-77
2022/01/04 08:16:18;;;;;;;2.10;1.30;;;;;;;;;;5090091;28;20909;-77
2022/01/04 08:18:45;;;;;;;2.00;1.10;;;;;;;;;;5091291;28;20417;-76
2022/01/04 08:21:11;;;;;;;2.70;1.60;;;;;;;;;;5089263;28;20429;-77
2022/01/04 08:23:37;;;;;;;2.40;1.40;;;;;;;;;;5091164;28;20406;-77
2022/01/04 08:26:04;;;;;;;1.60;0.90;;;;;;;;;;5091083;28;20402;-77
2022/01/04 08:28:30;;;;;;;2.17;1.10;;;;;;;;;;5091440;28;20437;-77
2022/01/04 08:30:56;;;;;;;6.40;1.30;;;;;;;;;;5088453;28;20452;-77
2022/01/04 08:33:22;;;;;;;5.30;1.83;;;;;;;;;;5070844;28;20925;-77
2022/01/04 08:35:48;;;;;;;11.83;2.20;;;;;;;;;;5070947;28;20890;-77
2022/01/04 08:38:15;;;;;;;5.47;2.63;;;;;;;;;;5070856;28;20399;-77
2022/01/04 08:40:41;;;;;;;5.40;2.70;;;;;;;;;;5070770;28;20452;-77
2022/01/04 08:43:07;;;;;;;15.83;2.10;;;;;;;;;;5071394;28;20425;-77
2022/01/04 08:45:33;;;;;;;8.13;1.80;;;;;;;;;;5070883;28;20833;-77
2022/01/04 08:48:00;;;;;;;10.40;2.00;;;;;;;;;;5070630;28;20460;-77
2022/01/04 08:50:27;;;;;;;4.77;1.50;;;;;;;;;;5070126;28;20450;-77
2022/01/04 08:52:55;;;;;;;3.53;1.07;;;;;;;;;;5070371;28;20500;-77
2022/01/04 08:55:22;;;;;;;3.07;1.20;;;;;;;;;;5071929;28;20774;-77
2022/01/04 08:57:48;;;;;;;5.87;2.60;;;;;;;;;;5074854;28;20402;-77
2022/01/04 09:00:14;;;;;;;7.83;2.20;;;;;;;;;;5074575;28;20439;-77
2022/01/04 09:02:40;;;;;;;3.30;1.80;;;;;;;;;;5074267;28;20497;-77
2022/01/04 09:05:07;;;;;;;2.90;1.40;;;;;;;;;;5075587;28;20940;-77
2022/01/04 09:07:34;;;;;;;1.93;1.10;;;;;;;;;;5074552;28;20414;-77
2022/01/04 09:10:00;;;;;;;4.73;2.30;;;;;;;;;;5091583;28;20441;-77
2022/01/04 09:12:36;;;;;;;7.10;2.10;;;;;;;;;;5094291;28;20982;-77
2022/01/04 09:15:27;;;;;;;3.83;1.50;;;;;;;;;;5095594;28;20405;-77
2022/01/04 09:20:36;;;;;;;25.17;2.33;;;;;;;;;;5092292;28;20880;-74
2022/01/04 09:23:02;;;;;;;13.87;2.23;;;;;;;;;;5092504;28;20417;-74
2022/01/04 09:25:28;;;;;;;8.97;2.03;;;;;;;;;;5079795;28;20418;-73
2022/01/04 09:27:54;;;;;;;10.93;1.83;;;;;;;;;;5074650;28;20417;-76
2022/01/04 09:30:20;;;;;;;1.20;0.77;;;;;;;;;;5072380;28;20481;-76
2022/01/04 09:32:46;;;;;;;9.00;2.00;;;;;;;;;;5072174;28;20470;-76
2022/01/04 09:35:14;;;;;;;2.23;1.23;;;;;;;;;;5077287;28;20407;-77
2022/01/04 09:37:40;;;;;;;2.53;1.57;;;;;;;;;;5082804;28;20403;-77
2022/01/04 09:40:06;;;;;;;1.60;0.90;;;;;;;;;;5073559;28;20422;-76
2022/01/04 09:42:33;;;;;;;3.40;1.53;;;;;;;;;;5073301;28;20543;-76
2022/01/04 09:45:00;;;;;;;3.40;1.10;;;;;;;;;;5073660;28;20406;-76
2022/01/04 09:47:26;;;;;;;2.80;1.53;;;;;;;;;;5073624;28;20403;-76
2022/01/04 09:49:52;;;;;;;1.77;1.07;;;;;;;;;;5073231;28;20450;-77
2022/01/04 09:52:21;;;;;;;11.60;1.90;;;;;;;;;;5073184;28;20454;-76
2022/01/04 09:54:50;;;;;;;1.10;0.70;;;;;;;;;;5073928;28;20778;-77
2022/01/04 09:57:16;;;;;;;1.10;0.70;;;;;;;;;;5073090;28;20406;-76
2022/01/04 09:59:42;;;;;;;1.10;0.60;;;;;;;;;;5073140;28;20445;-76
2022/01/04 10:02:12;;;;;;;2.77;1.67;;;;;;;;;;5072914;28;20414;-76
2022/01/04 10:04:38;;;;;;;1.40;0.87;;;;;;;;;;5073308;28;20399;-76
2022/01/04 10:07:05;;;;;;;1.90;1.03;;;;;;;;;;5072350;28;20414;-76
2022/01/04 10:09:44;;;;;;;2.53;1.13;;;;;;;;;;5073108;28;20510;-76
2022/01/04 10:12:10;;;;;;;1.23;0.70;;;;;;;;;;5072907;28;20454;-77
2022/01/04 10:14:38;;;;;;;1.73;0.97;;;;;;;;;;5073212;28;20399;-77
2022/01/04 10:17:08;;;;;;;3.80;1.93;;;;;;;;;;5073131;28;20495;-76
2022/01/04 10:19:35;;;;;;;3.87;1.80;;;;;;;;;;5073027;28;20426;-77
2022/01/04 10:22:23;;;;;;;2.33;1.00;;;;;;;;;;5072929;28;20460;-77
2022/01/04 10:25:02;;;;;;;1.60;1.13;;;;;;;;;;5073382;28;20754;-77
2022/01/04 10:27:44;;;;;;;0.97;0.60;;;;;;;;;;5073185;28;20428;-76
2022/01/04 10:30:10;;;;;;;2.33;0.90;;;;;;;;;;5072657;28;20423;-77
2022/01/04 10:32:47;;;;;;;2.50;1.03;;;;;;;;;;5071311;28;20798;-77
2022/01/04 10:35:25;;;;;;;1.63;0.70;;;;;;;;;;5073000;28;20395;-77
2022/01/04 10:37:51;;;;;;;1.27;0.80;;;;;;;;;;5073072;28;20788;-77
2022/01/04 10:40:17;;;;;;;1.10;0.60;;;;;;;;;;5071339;28;20941;-77
2022/01/04 10:42:43;;;;;;;1.20;0.90;;;;;;;;;;5072650;28;20874;-77
2022/01/04 10:45:25;;;;;;;1.80;0.97;;;;;;;;;;5072559;28;20399;-77
2022/01/04 10:47:51;;;;;;;1.87;1.00;;;;;;;;;;5072740;28;20460;-76
2022/01/04 10:50:44;;;;;;;1.50;0.90;;;;;;;;;;5072277;28;20461;-76
2022/01/04 10:53:15;;;;;;;3.30;1.30;;;;;;;;;;5041525;28;20767;-77
2022/01/04 10:55:41;;;;;;;1.50;0.80;;;;;;;;;;5072575;28;20399;-77
2022/01/04 10:58:07;;;;;;;1.00;0.60;;;;;;;;;;5072401;28;20410;-76
2022/01/04 11:00:33;;;;;;;1.23;0.70;;;;;;;;;;5072037;28;20419;-77
2022/01/04 11:03:02;;;;;;;1.10;0.67;;;;;;;;;;5072330;28;20727;-77
2022/01/04 11:05:28;;;;;;;0.90;0.50;;;;;;;;;;5073391;28;20449;-82
2022/01/04 11:07:57;;;;;;;1.13;0.63;;;;;;;;;;5074586;28;20399;-77
2022/01/04 11:10:23;;;;;;;1.23;0.73;;;;;;;;;;5070853;28;20498;-77
2022/01/04 11:12:49;;;;;;;2.90;1.40;;;;;;;;;;5070625;28;20462;-77
2022/01/04 11:15:15;;;;;;;2.40;1.20;;;;;;;;;;5071945;28;20399;-77
2022/01/04 11:17:41;;;;;;;1.37;0.67;;;;;;;;;;5072005;28;20402;-77
2022/01/04 11:20:08;;;;;;;1.60;0.93;;;;;;;;;;5071748;28;20414;-76
2022/01/04 11:22:35;;;;;;;1.20;0.70;;;;;;;;;;5071498;28;20406;-76
2022/01/04 11:25:02;;;;;;;1.10;0.70;;;;;;;;;;5070630;28;20411;-77
2022/01/04 11:27:31;;;;;;;1.00;0.70;;;;;;;;;;5071893;28;20407;-77
2022/01/04 11:29:58;;;;;;;1.23;0.60;;;;;;;;;;5070931;28;20499;-77
2022/01/04 11:32:25;;;;;;;1.40;0.80;;;;;;;;;;5070310;28;20458;-77
2022/01/04 11:35:08;;;;;;;1.10;0.60;;;;;;;;;;5071481;28;20890;-76
2022/01/04 11:37:35;;;;;;;1.50;0.90;;;;;;;;;;5071053;28;20398;-76
2022/01/04 11:40:21;;;;;;;1.00;0.63;;;;;;;;;;5070402;28;20427;-76
2022/01/04 11:42:47;;;;;;;2.87;1.40;;;;;;;;;;5068401;28;20913;-76
2022/01/04 11:45:13;;;;;;;3.10;1.10;;;;;;;;;;5070051;28;20415;-77
2022/01/04 11:47:46;;;;;;;1.30;0.70;;;;;;;;;;5071422;28;20459;-77
2022/01/04 11:50:13;;;;;;;2.20;1.20;;;;;;;;;;5071268;28;20453;-76
2022/01/04 11:52:43;;;;;;;1.13;0.73;;;;;;;;;;5073659;28;20515;-76
2022/01/04 11:55:21;;;;;;;2.20;1.17;;;;;;;;;;5071398;28;20403;-77
2022/01/04 11:57:48;;;;;;;1.33;0.90;;;;;;;;;;5071179;28;20399;-77
2022/01/04 12:00:23;;;;;;;1.23;0.80;;;;;;;;;;5071103;28;20427;-76
2022/01/04 12:03:08;;;;;;;1.27;0.70;;;;;;;;;;5069766;28;20409;-76
2022/01/04 12:05:35;;;;;;;1.37;0.70;;;;;;;;;;5071223;28;20403;-76
2022/01/04 12:08:14;;;;;;;1.80;1.00;;;;;;;;;;5070951;28;20406;-76
2022/01/04 12:10:41;;;;;;;1.70;0.90;;;;;;;;;;5069395;28;20442;-77
2022/01/04 12:13:20;;;;;;;1.83;1.03;;;;;;;;;;5070976;28;20465;-78
2022/01/04 12:16:06;;;;;;;1.87;1.00;;;;;;;;;;5069943;28;20415;-78
2022/01/04 12:18:35;;;;;;;1.33;0.80;;;;;;;;;;5071159;28;20914;-76
2022/01/04 12:21:02;;;;;;;1.73;0.90;;;;;;;;;;5070491;28;20426;-77
2022/01/04 12:23:29;;;;;;;1.80;1.10;;;;;;;;;;5078099;28;20497;-77
2022/01/04 12:26:05;;;;;;;3.03;1.00;;;;;;;;;;5076056;28;20476;-77
2022/01/04 12:28:31;;;;;;;1.20;0.80;;;;;;;;;;5069615;28;20398;-77
2022/01/04 12:31:16;;;;;;;1.00;0.70;;;;;;;;;;5068447;28;20446;-79
2022/01/04 12:33:48;;;;;;;1.00;0.60;;;;;;;;;;5057709;28;20497;-78
2022/01/04 12:36:23;;;;;;;1.30;0.90;;;;;;;;;;5070202;28;20425;-79
2022/01/04 12:38:50;;;;;;;1.53;0.90;;;;;;;;;;5072463;28;21024;-80
2022/01/04 12:41:17;;;;;;;4.53;1.57;;;;;;;;;;5086128;28;20418;-81
2022/01/04 12:43:46;;;;;;;1.30;0.70;;;;;;;;;;5084613;28;20425;-78
2022/01/04 12:46:13;;;;;;;1.43;0.70;;;;;;;;;;5089877;28;20447;-78
2022/01/04 12:48:46;;;;;;;1.20;0.80;;;;;;;;;;5089581;28;20447;-81
2022/01/04 12:51:28;;;;;;;7.33;1.23;;;;;;;;;;5091001;28;20491;-79
2022/01/04 12:53:57;;;;;;;2.43;1.17;;;;;;;;;;5081783;28;20794;-79
2022/01/04 12:56:25;;;;;;;1.07;0.70;;;;;;;;;;5072444;28;20494;-79
2022/01/04 12:58:51;;;;;;;1.00;0.60;;;;;;;;;;5071448;28;20930;-79
2022/01/04 13:01:25;;;;;;;1.87;1.00;;;;;;;;;;5072010;28;20425;-79
2022/01/04 13:03:51;;;;;;;1.40;1.00;;;;;;;;;;5071015;28;20406;-78
2022/01/04 13:06:17;;;;;;;1.57;0.97;;;;;;;;;;5068088;28;20457;-79
2022/01/04 13:08:53;;;;;;;1.20;0.80;;;;;;;;;;5070882;28;20407;-79
2022/01/04 13:11:19;;;;;;;1.30;0.80;;;;;;;;;;5071656;28;20818;-80
2022/01/04 13:13:55;;;;;;;1.13;0.77;;;;;;;;;;5070175;28;20926;-78
2022/01/04 13:16:31;;;;;;;3.83;1.37;;;;;;;;;;5072640;28;20493;-78
2022/01/04 13:19:17;;;;;;;1.60;1.00;;;;;;;;;;5070595;28;20399;-77
2022/01/04 13:21:44;;;;;;;1.30;0.80;;;;;;;;;;5070625;28;20403;-78
2022/01/04 13:24:10;;;;;;;1.13;0.67;;;;;;;;;;5073949;28;20553;-78
2022/01/04 13:26:36;;;;;;;8.17;1.90;;;;;;;;;;5073114;28;20769;-78
2022/01/04 13:29:02;;;;;;;1.73;1.07;;;;;;;;;;5072967;28;20441;-78
2022/01/04 13:31:28;;;;;;;2.00;0.80;;;;;;;;;;5072262;28;20466;-78
2022/01/04 13:33:55;;;;;;;3.83;2.10;;;;;;;;;;5073233;28;20430;-78
2022/01/04 13:36:22;;;;;;;1.20;0.90;;;;;;;;;;5071057;28;20469;-78
2022/01/04 13:38:51;;;;;;;1.70;1.00;;;;;;;;;;5071544;28;20403;-78
2022/01/04 13:41:39;;;;;;;3.27;1.20;;;;;;;;;;5071646;28;20414;-78
2022/01/04 13:44:06;;;;;;;1.10;0.63;;;;;;;;;;5075625;28;20411;-78
2022/01/04 13:46:34;;;;;;;4.57;1.70;;;;;;;;;;5076552;28;20406;-77
2022/01/04 13:49:00;;;;;;;2.37;1.23;;;;;;;;;;5075922;28;20434;-78
2022/01/04 13:51:29;;;;;;;1.30;0.77;;;;;;;;;;5078152;28;20486;-78
2022/01/04 13:53:57;;;;;;;3.97;1.53;;;;;;;;;;5077060;28;20847;-78
2022/01/04 13:56:25;;;;;;;1.70;1.00;;;;;;;;;;5079573;28;20828;-78
2022/01/04 13:58:54;;;;;;;2.47;1.20;;;;;;;;;;5078513;28;20407;-78
2022/01/04 14:01:33;;;;;;;10.73;2.07;;;;;;;;;;5077775;28;20774;-78
2022/01/04 14:04:15;;;;;;;2.23;1.10;;;;;;;;;;5077994;28;20399;-78
2022/01/04 14:06:48;;;;;;;1.20;0.80;;;;;;;;;;5075099;28;20494;-78
2022/01/04 14:09:17;;;;;;;3.47;1.60;;;;;;;;;;5087022;28;20425;-78
2022/01/04 14:11:44;;;;;;;2.60;1.23;;;;;;;;;;5074652;28;20443;-78
2022/01/04 14:14:10;;;;;;;3.73;2.00;;;;;;;;;;5074793;28;20882;-78
2022/01/04 14:16:47;;;;;;;2.20;1.00;;;;;;;;;;5074615;28;20501;-77
2022/01/04 14:19:17;;;;;;;1.13;0.70;;;;;;;;;;5074325;28;20421;-78
2022/01/04 14:21:45;;;;;;;1.10;0.70;;;;;;;;;;5074185;28;20407;-78
2022/01/04 14:24:30;;;;;;;3.27;1.67;;;;;;;;;;5074016;28;20402;-78
2022/01/04 14:26:59;;;;;;;4.77;1.40;;;;;;;;;;5073228;28;20403;-78
2022/01/04 14:29:40;;;;;;;1.00;0.60;;;;;;;;;;5072643;28;20430;-78
2022/01/04 14:32:08;;;;;;;3.43;1.40;;;;;;;;;;5073587;28;20468;-78
2022/01/04 14:34:35;;;;;;;4.37;1.90;;;;;;;;;;5074665;28;20407;-78
2022/01/04 14:37:01;;;;;;;4.27;1.57;;;;;;;;;;5074090;28;20486;-78
2022/01/04 14:39:28;;;;;;;1.00;0.70;;;;;;;;;;5077868;28;20442;-81
2022/01/04 14:41:55;;;;;;;3.47;1.23;;;;;;;;;;5079854;28;20457;-80
2022/01/04 14:44:21;;;;;;;2.33;1.13;;;;;;;;;;5074098;28;20452;-78
2022/01/04 14:46:47;;;;;;;1.87;0.90;;;;;;;;;;5073456;28;20410;-78
2022/01/04 14:49:13;;;;;;;1.13;0.63;;;;;;;;;;5072861;28;20806;-78
2022/01/04 14:51:39;;;;;;;3.00;1.83;;;;;;;;;;5071645;28;20466;-78
2022/01/04 14:54:05;;;;;;;3.17;1.57;;;;;;;;;;5072811;28;20701;-77